sensor_id;sensor_type;location;lat;lon;timestamp;temperature;humidity
14079;DHT22;7115;50.150;8.568;2024-01-16T00:00:00;1.80;99.90
14079;DHT22;7115;50.150;8.568;2024-01-16T00:02:29;1.80;99.90
14079;DHT22;7115;50.150;8.568;2024-01-16T00:04:56;1.70;99.90
14079;DHT22;7115;50.150;8.568;2024-01-16T00:07:23;1.70;99.90
14079;DHT22;7115;50.150;8.568;2024-01-16T00:09:50;1.70;99.90
14079;DHT22;7115;50.150;8.568;2024-01-16T00:12:19;1.70;99.90
14079;DHT22;7115;50.150;8.568;2024-01-16T00:14:46;1.70;99.90
14079;DHT22;7115;50.150;8.568;2024-01-16T00:17:13;1.70;99.90
14079;DHT22;7115;50.150;8.568;2024-01-16T00:19:41;1.70;99.90
14079;DHT22;7115;50.150;8.568;2024-01-16T00:22:08;1.70;99.90
14079;DHT22;7115;50.150;8.568;2024-01-16T00:24:35;1.70;99.90
14079;DHT22;7115;50.150;8.568;2024-01-16T00:27:02;1.60;99.90
14079;DHT22;7115;50.150;8.568;2024-01-16T00:29:33;1.70;99.90
14079;DHT22;7115;50.150;8.568;2024-01-16T00:31:59;1.70;99.90
14079;DHT22;7115;50.150;8.568;2024-01-16T00:34:26;1.60;99.90
14079;DHT22;7115;50.150;8.568;2024-01-16T00:36:55;1.60;99.90
14079;DHT22;7115;50.150;8.568;2024-01-16T00:39:22;1.60;99.90
14079;DHT22;7115;50.150;8.568;2024-01-16T00:41:49;1.60;99.90
14079;DHT22;7115;50.150;8.568;2024-01-16T00:44:16;1.60;99.90
14079;DHT22;7115;50.150;8.568;2024-01-16T00:46:43;1.50;99.90
14079;DHT22;7115;50.150;8.568;2024-01-16T00:49:10;1.60;99.90
14079;DHT22;7115;50.150;8.568;2024-01-16T00:51:37;1.50;99.90
14079;DHT22;7115;50.150;8.568;2024-01-16T00:54:06;1.60;99.90
14079;DHT22;7115;50.150;8.568;2024-01-16T00:56:35;1.60;99.90
14079;DHT22;7115;50.150;8.568;2024-01-16T00:59:03;1.60;99.90
14079;DHT22;7115;50.150;8.568;2024-01-16T01:01:30;1.60;99.90
14079;DHT22;7115;50.150;8.568;2024-01-16T01:03:57;1.60;99.90
14079;DHT22;7115;50.150;8.568;2024-01-16T01:06:24;1.60;99.90
14079;DHT22;7115;50.150;8.568;2024-01-16T01:08:51;1.60;99.90
14079;DHT22;7115;50.150;8.568;2024-01-16T01:11:19;1.60;99.90
14079;DHT22;7115;50.150;8.568;2024-01-16T01:13:46;1.60;99.90
14079;DHT22;7115;50.150;8.568;2024-01-16T01:16:13;1.60;99.90
14079;DHT22;7115;50.150;8.568;2024-01-16T01:18:40;1.60;99.90
14079;DHT22;7115;50.150;8.568;2024-01-16T01:21:07;1.60;99.90
14079;DHT22;7115;50.150;8.568;2024-01-16T01:23:34;1.60;99.90
14079;DHT22;7115;50.150;8.568;2024-01-16T01:26:01;1.60;99.90
14079;DHT22;7115;50.150;8.568;2024-01-16T01:28:32;1.60;99.90
14079;DHT22;7115;50.150;8.568;2024-01-16T01:30:59;1.60;99.90
14079;DHT22;7115;50.150;8.568;2024-01-16T01:33:26;1.60;99.90
14079;DHT22;7115;50.150;8.568;2024-01-16T01:35:53;1.50;99.90
14079;DHT22;7115;50.150;8.568;2024-01-16T01:38:20;1.50;99.90
14079;DHT22;7115;50.150;8.568;2024-01-16T01:40:47;1.50;99.90
14079;DHT22;7115;50.150;8.568;2024-01-16T01:43:18;1.50;99.90
14079;DHT22;7115;50.150;8.568;2024-01-16T01:46:04;1.50;99.90
14079;DHT22;7115;50.150;8.568;2024-01-16T01:48:36;1.50;99.90
14079;DHT22;7115;50.150;8.568;2024-01-16T01:51:03;1.50;99.90
14079;DHT22;7115;50.150;8.568;2024-01-16T01:53:33;1.50;99.90
14079;DHT22;7115;50.150;8.568;2024-01-16T01:56:03;1.50;99.90
14079;DHT22;7115;50.150;8.568;2024-01-16T01:58:30;1.50;99.90
14079;DHT22;7115;50.150;8.568;2024-01-16T02:00:59;1.50;99.90
14079;DHT22;7115;50.150;8.568;2024-01-16T02:03:27;1.50;99.90
14079;DHT22;7115;50.150;8.568;2024-01-16T02:05:56;1.50;99.90
14079;DHT22;7115;50.150;8.568;2024-01-16T02:08:24;1.50;99.90
14079;DHT22;7115;50.150;8.568;2024-01-16T02:10:51;1.50;99.90
14079;DHT22;7115;50.150;8.568;2024-01-16T02:13:19;1.50;99.90
14079;DHT22;7115;50.150;8.568;2024-01-16T02:15:50;1.50;99.90
14079;DHT22;7115;50.150;8.568;2024-01-16T02:18:18;1.50;99.90
14079;DHT22;7115;50.150;8.568;2024-01-16T02:20:45;1.50;99.90
14079;DHT22;7115;50.150;8.568;2024-01-16T02:23:14;1.60;99.90
14079;DHT22;7115;50.150;8.568;2024-01-16T02:25:44;1.50;99.90
14079;DHT22;7115;50.150;8.568;2024-01-16T02:28:11;1.60;99.90
14079;DHT22;7115;50.150;8.568;2024-01-16T02:30:38;1.50;99.90
14079;DHT22;7115;50.150;8.568;2024-01-16T02:33:05;1.50;99.90
14079;DHT22;7115;50.150;8.568;2024-01-16T02:35:32;1.50;99.90
14079;DHT22;7115;50.150;8.568;2024-01-16T02:38:00;1.50;99.90
14079;DHT22;7115;50.150;8.568;2024-01-16T02:40:27;1.60;99.90
14079;DHT22;7115;50.150;8.568;2024-01-16T02:42:55;1.60;99.90
14079;DHT22;7115;50.150;8.568;2024-01-16T02:45:23;1.60;99.90
14079;DHT22;7115;50.150;8.568;2024-01-16T02:47:50;1.70;99.90
14079;DHT22;7115;50.150;8.568;2024-01-16T02:50:17;1.70;99.90
14079;DHT22;7115;50.150;8.568;2024-01-16T02:52:44;1.70;99.90
14079;DHT22;7115;50.150;8.568;2024-01-16T02:55:11;1.70;99.90
14079;DHT22;7115;50.150;8.568;2024-01-16T02:57:38;1.70;99.90
14079;DHT22;7115;50.150;8.568;2024-01-16T03:00:07;1.70;99.90
14079;DHT22;7115;50.150;8.568;2024-01-16T03:02:35;1.80;99.90
14079;DHT22;7115;50.150;8.568;2024-01-16T03:05:02;1.70;99.90
14079;DHT22;7115;50.150;8.568;2024-01-16T03:07:30;1.80;99.90
14079;DHT22;7115;50.150;8.568;2024-01-16T03:09:57;1.80;99.90
14079;DHT22;7115;50.150;8.568;2024-01-16T03:12:24;1.70;99.90
14079;DHT22;7115;50.150;8.568;2024-01-16T03:14:51;1.70;99.90
14079;DHT22;7115;50.150;8.568;2024-01-16T03:17:21;1.70;99.90
14079;DHT22;7115;50.150;8.568;2024-01-16T03:19:48;1.70;99.90
14079;DHT22;7115;50.150;8.568;2024-01-16T03:22:15;1.70;99.90
14079;DHT22;7115;50.150;8.568;2024-01-16T03:24:42;1.70;99.90
14079;DHT22;7115;50.150;8.568;2024-01-16T03:27:09;1.70;99.90
14079;DHT22;7115;50.150;8.568;2024-01-16T03:29:36;1.70;99.90
14079;DHT22;7115;50.150;8.568;2024-01-16T03:32:04;1.70;99.90
14079;DHT22;7115;50.150;8.568;2024-01-16T03:34:32;1.70;99.90
14079;DHT22;7115;50.150;8.568;2024-01-16T03:36:59;1.70;99.90
14079;DHT22;7115;50.150;8.568;2024-01-16T03:39:26;1.70;99.90
14079;DHT22;7115;50.150;8.568;2024-01-16T03:41:53;1.70;99.90
14079;DHT22;7115;50.150;8.568;2024-01-16T03:44:20;1.70;99.90
14079;DHT22;7115;50.150;8.568;2024-01-16T03:46:47;1.60;99.90
14079;DHT22;7115;50.150;8.568;2024-01-16T03:49:14;1.70;99.90
14079;DHT22;7115;50.150;8.568;2024-01-16T03:51:43;1.60;99.90
14079;DHT22;7115;50.150;8.568;2024-01-16T03:54:13;1.60;99.90
14079;DHT22;7115;50.150;8.568;2024-01-16T03:56:40;1.60;99.90
14079;DHT22;7115;50.150;8.568;2024-01-16T03:59:07;1.60;99.90
14079;DHT22;7115;50.150;8.568;2024-01-16T04:01:34;1.60;99.90
14079;DHT22;7115;50.150;8.568;2024-01-16T04:04:04;1.50;99.90
14079;DHT22;7115;50.150;8.568;2024-01-16T04:06:34;1.40;99.90
14079;DHT22;7115;50.150;8.568;2024-01-16T04:09:03;1.40;99.90
14079;DHT22;7115;50.150;8.568;2024-01-16T04:11:31;1.40;99.90
14079;DHT22;7115;50.150;8.568;2024-01-16T04:13:58;1.40;99.90
14079;DHT22;7115;50.150;8.568;2024-01-16T04:16:25;1.40;99.90
14079;DHT22;7115;50.150;8.568;2024-01-16T04:18:53;1.40;99.90
14079;DHT22;7115;50.150;8.568;2024-01-16T04:21:20;1.40;99.90
14079;DHT22;7115;50.150;8.568;2024-01-16T04:23:47;1.40;99.90
14079;DHT22;7115;50.150;8.568;2024-01-16T04:26:16;1.40;99.90
14079;DHT22;7115;50.150;8.568;2024-01-16T04:28:43;1.40;99.90
14079;DHT22;7115;50.150;8.568;2024-01-16T04:31:09;1.40;99.90
14079;DHT22;7115;50.150;8.568;2024-01-16T04:33:38;1.30;99.90
14079;DHT22;7115;50.150;8.568;2024-01-16T04:36:07;1.40;99.90
14079;DHT22;7115;50.150;8.568;2024-01-16T04:38:34;1.40;99.90
14079;DHT22;7115;50.150;8.568;2024-01-16T04:41:01;1.40;99.90
14079;DHT22;7115;50.150;8.568;2024-01-16T04:43:30;1.40;99.90
14079;DHT22;7115;50.150;8.568;2024-01-16T04:45:57;1.50;99.90
14079;DHT22;7115;50.150;8.568;2024-01-16T04:48:29;1.40;99.90
14079;DHT22;7115;50.150;8.568;2024-01-16T04:50:56;1.40;99.90
14079;DHT22;7115;50.150;8.568;2024-01-16T04:53:24;1.40;99.90
14079;DHT22;7115;50.150;8.568;2024-01-16T04:55:51;1.40;99.90
14079;DHT22;7115;50.150;8.568;2024-01-16T04:58:19;1.40;99.90
14079;DHT22;7115;50.150;8.568;2024-01-16T05:00:47;1.40;99.90
14079;DHT22;7115;50.150;8.568;2024-01-16T05:03:14;1.50;99.90
14079;DHT22;7115;50.150;8.568;2024-01-16T05:05:41;1.40;99.90
14079;DHT22;7115;50.150;8.568;2024-01-16T05:08:08;1.40;99.90
14079;DHT22;7115;50.150;8.568;2024-01-16T05:10:36;1.30;99.90
14079;DHT22;7115;50.150;8.568;2024-01-16T05:13:03;1.30;99.90
14079;DHT22;7115;50.150;8.568;2024-01-16T05:15:30;1.30;99.90
14079;DHT22;7115;50.150;8.568;2024-01-16T05:17:58;1.20;99.90
14079;DHT22;7115;50.150;8.568;2024-01-16T05:20:25;1.20;99.90
14079;DHT22;7115;50.150;8.568;2024-01-16T05:22:52;1.20;99.90
14079;DHT22;7115;50.150;8.568;2024-01-16T05:25:20;1.20;99.90
14079;DHT22;7115;50.150;8.568;2024-01-16T05:27:48;1.20;99.90
14079;DHT22;7115;50.150;8.568;2024-01-16T05:30:16;1.20;99.90
14079;DHT22;7115;50.150;8.568;2024-01-16T05:32:43;1.30;99.90
14079;DHT22;7115;50.150;8.568;2024-01-16T05:35:11;1.30;99.90
14079;DHT22;7115;50.150;8.568;2024-01-16T05:37:38;1.30;99.90
14079;DHT22;7115;50.150;8.568;2024-01-16T05:40:07;1.30;99.90
14079;DHT22;7115;50.150;8.568;2024-01-16T05:42:34;1.30;99.90
14079;DHT22;7115;50.150;8.568;2024-01-16T05:45:01;1.30;99.90
14079;DHT22;7115;50.150;8.568;2024-01-16T05:47:29;1.30;99.90
14079;DHT22;7115;50.150;8.568;2024-01-16T05:49:57;1.30;99.90
14079;DHT22;7115;50.150;8.568;2024-01-16T05:52:26;1.20;99.90
14079;DHT22;7115;50.150;8.568;2024-01-16T05:54:53;1.10;99.90
14079;DHT22;7115;50.150;8.568;2024-01-16T05:57:24;1.00;99.90
14079;DHT22;7115;50.150;8.568;2024-01-16T05:59:51;1.00;99.90
14079;DHT22;7115;50.150;8.568;2024-01-16T06:02:18;1.00;99.90
14079;DHT22;7115;50.150;8.568;2024-01-16T06:04:45;1.00;99.90
14079;DHT22;7115;50.150;8.568;2024-01-16T06:07:13;1.00;99.90
14079;DHT22;7115;50.150;8.568;2024-01-16T06:09:41;1.00;99.90
14079;DHT22;7115;50.150;8.568;2024-01-16T06:12:08;1.00;99.90
14079;DHT22;7115;50.150;8.568;2024-01-16T06:14:36;0.90;99.90
14079;DHT22;7115;50.150;8.568;2024-01-16T06:17:03;1.00;99.90
14079;DHT22;7115;50.150;8.568;2024-01-16T06:19:32;1.00;99.90
14079;DHT22;7115;50.150;8.568;2024-01-16T06:21:59;1.00;99.90
14079;DHT22;7115;50.150;8.568;2024-01-16T06:24:27;1.00;99.90
14079;DHT22;7115;50.150;8.568;2024-01-16T06:26:55;1.00;99.90
14079;DHT22;7115;50.150;8.568;2024-01-16T06:29:22;0.90;99.90
14079;DHT22;7115;50.150;8.568;2024-01-16T06:32:01;0.90;99.90
14079;DHT22;7115;50.150;8.568;2024-01-16T06:34:28;0.90;99.90
14079;DHT22;7115;50.150;8.568;2024-01-16T06:36:55;0.80;99.90
14079;DHT22;7115;50.150;8.568;2024-01-16T06:39:22;0.70;99.90
14079;DHT22;7115;50.150;8.568;2024-01-16T06:41:49;0.60;99.90
14079;DHT22;7115;50.150;8.568;2024-01-16T06:44:18;0.60;99.90
14079;DHT22;7115;50.150;8.568;2024-01-16T06:46:45;0.60;99.90
14079;DHT22;7115;50.150;8.568;2024-01-16T06:49:13;0.60;99.90
14079;DHT22;7115;50.150;8.568;2024-01-16T06:51:40;0.60;99.90
14079;DHT22;7115;50.150;8.568;2024-01-16T06:54:07;0.60;99.90
14079;DHT22;7115;50.150;8.568;2024-01-16T06:56:34;0.50;99.90
14079;DHT22;7115;50.150;8.568;2024-01-16T06:59:01;0.60;99.90
14079;DHT22;7115;50.150;8.568;2024-01-16T07:01:30;0.50;99.90
14079;DHT22;7115;50.150;8.568;2024-01-16T07:03:57;0.50;99.90
14079;DHT22;7115;50.150;8.568;2024-01-16T07:06:24;0.40;99.90
14079;DHT22;7115;50.150;8.568;2024-01-16T07:08:51;0.30;99.90
14079;DHT22;7115;50.150;8.568;2024-01-16T07:11:18;0.20;99.90
14079;DHT22;7115;50.150;8.568;2024-01-16T07:13:45;0.20;99.90
14079;DHT22;7115;50.150;8.568;2024-01-16T07:16:13;0.20;99.90
14079;DHT22;7115;50.150;8.568;2024-01-16T07:18:42;0.10;99.90
14079;DHT22;7115;50.150;8.568;2024-01-16T07:21:17;0.10;99.90
14079;DHT22;7115;50.150;8.568;2024-01-16T07:23:44;0.10;99.90
14079;DHT22;7115;50.150;8.568;2024-01-16T07:26:11;0.00;99.90
14079;DHT22;7115;50.150;8.568;2024-01-16T07:28:38;0.00;99.90
14079;DHT22;7115;50.150;8.568;2024-01-16T07:31:06;0.00;99.90
14079;DHT22;7115;50.150;8.568;2024-01-16T07:33:33;0.00;99.90
14079;DHT22;7115;50.150;8.568;2024-01-16T07:36:01;0.00;99.90
14079;DHT22;7115;50.150;8.568;2024-01-16T07:38:29;0.00;99.90
14079;DHT22;7115;50.150;8.568;2024-01-16T07:40:57;0.00;99.90
14079;DHT22;7115;50.150;8.568;2024-01-16T07:43:24;0.00;99.90
14079;DHT22;7115;50.150;8.568;2024-01-16T07:45:51;0.10;99.90
14079;DHT22;7115;50.150;8.568;2024-01-16T07:48:17;0.10;99.90
14079;DHT22;7115;50.150;8.568;2024-01-16T07:50:45;0.10;99.90
14079;DHT22;7115;50.150;8.568;2024-01-16T07:53:14;0.20;99.90
14079;DHT22;7115;50.150;8.568;2024-01-16T07:55:42;0.20;99.90
14079;DHT22;7115;50.150;8.568;2024-01-16T07:58:10;0.20;99.90
14079;DHT22;7115;50.150;8.568;2024-01-16T08:00:37;0.20;99.90
14079;DHT22;7115;50.150;8.568;2024-01-16T08:03:07;0.20;99.90
14079;DHT22;7115;50.150;8.568;2024-01-16T08:05:35;0.20;99.90
14079;DHT22;7115;50.150;8.568;2024-01-16T08:08:03;0.20;99.90
14079;DHT22;7115;50.150;8.568;2024-01-16T08:10:31;0.20;99.90
14079;DHT22;7115;50.150;8.568;2024-01-16T08:12:58;0.20;99.90
14079;DHT22;7115;50.150;8.568;2024-01-16T08:15:25;0.10;99.90
14079;DHT22;7115;50.150;8.568;2024-01-16T08:17:52;0.20;99.90
14079;DHT22;7115;50.150;8.568;2024-01-16T08:20:19;0.20;99.90
14079;DHT22;7115;50.150;8.568;2024-01-16T08:22:46;0.20;99.90
14079;DHT22;7115;50.150;8.568;2024-01-16T08:25:14;0.20;99.90
14079;DHT22;7115;50.150;8.568;2024-01-16T08:27:42;0.20;99.90
14079;DHT22;7115;50.150;8.568;2024-01-16T08:30:11;0.20;99.90
14079;DHT22;7115;50.150;8.568;2024-01-16T08:32:39;0.20;99.90
14079;DHT22;7115;50.150;8.568;2024-01-16T08:35:07;0.20;99.90
14079;DHT22;7115;50.150;8.568;2024-01-16T08:37:35;0.20;99.90
14079;DHT22;7115;50.150;8.568;2024-01-16T08:40:03;0.20;99.90
14079;DHT22;7115;50.150;8.568;2024-01-16T08:42:31;0.20;99.90
14079;DHT22;7115;50.150;8.568;2024-01-16T08:45:00;0.30;99.90
14079;DHT22;7115;50.150;8.568;2024-01-16T08:47:27;0.30;99.90
14079;DHT22;7115;50.150;8.568;2024-01-16T08:49:54;0.30;99.90
14079;DHT22;7115;50.150;8.568;2024-01-16T08:52:21;0.30;99.90
14079;DHT22;7115;50.150;8.568;2024-01-16T08:54:48;0.30;99.90
14079;DHT22;7115;50.150;8.568;2024-01-16T08:57:15;0.30;99.90
14079;DHT22;7115;50.150;8.568;2024-01-16T08:59:44;0.40;99.90
14079;DHT22;7115;50.150;8.568;2024-01-16T09:02:12;0.40;99.90
14079;DHT22;7115;50.150;8.568;2024-01-16T09:04:39;0.40;99.90
14079;DHT22;7115;50.150;8.568;2024-01-16T09:07:06;0.40;99.90
14079;DHT22;7115;50.150;8.568;2024-01-16T09:09:34;0.40;99.90
14079;DHT22;7115;50.150;8.568;2024-01-16T09:12:01;0.50;99.90
14079;DHT22;7115;50.150;8.568;2024-01-16T09:14:28;0.50;99.90
14079;DHT22;7115;50.150;8.568;2024-01-16T09:16:55;0.40;99.90
14079;DHT22;7115;50.150;8.568;2024-01-16T09:19:23;0.40;99.90
14079;DHT22;7115;50.150;8.568;2024-01-16T09:21:53;0.40;99.90
14079;DHT22;7115;50.150;8.568;2024-01-16T09:24:20;0.50;99.90
14079;DHT22;7115;50.150;8.568;2024-01-16T09:26:47;0.50;99.90
14079;DHT22;7115;50.150;8.568;2024-01-16T09:29:14;0.50;99.90
14079;DHT22;7115;50.150;8.568;2024-01-16T09:31:41;0.50;99.90
14079;DHT22;7115;50.150;8.568;2024-01-16T09:34:09;0.60;99.90
14079;DHT22;7115;50.150;8.568;2024-01-16T09:36:38;0.70;99.90
14079;DHT22;7115;50.150;8.568;2024-01-16T09:39:06;0.90;99.90
14079;DHT22;7115;50.150;8.568;2024-01-16T09:41:38;1.20;99.90
14079;DHT22;7115;50.150;8.568;2024-01-16T09:44:05;1.10;99.90
14079;DHT22;7115;50.150;8.568;2024-01-16T09:46:34;1.40;99.90
14079;DHT22;7115;50.150;8.568;2024-01-16T09:49:04;1.40;99.90
14079;DHT22;7115;50.150;8.568;2024-01-16T09:51:31;1.40;99.90
14079;DHT22;7115;50.150;8.568;2024-01-16T09:54:00;1.40;99.90
14079;DHT22;7115;50.150;8.568;2024-01-16T09:56:29;1.40;99.90
14079;DHT22;7115;50.150;8.568;2024-01-16T09:59:00;1.40;99.90
14079;DHT22;7115;50.150;8.568;2024-01-16T10:01:33;1.40;99.90
14079;DHT22;7115;50.150;8.568;2024-01-16T10:04:00;1.30;99.90
14079;DHT22;7115;50.150;8.568;2024-01-16T10:06:27;1.30;99.90
14079;DHT22;7115;50.150;8.568;2024-01-16T10:08:55;1.30;99.90
14079;DHT22;7115;50.150;8.568;2024-01-16T10:11:24;1.30;99.90
14079;DHT22;7115;50.150;8.568;2024-01-16T10:13:51;1.30;99.90
14079;DHT22;7115;50.150;8.568;2024-01-16T10:16:18;1.30;99.90
14079;DHT22;7115;50.150;8.568;2024-01-16T10:19:03;1.20;99.90
14079;DHT22;7115;50.150;8.568;2024-01-16T10:21:30;1.10;99.90
14079;DHT22;7115;50.150;8.568;2024-01-16T10:24:11;1.00;99.90
14079;DHT22;7115;50.150;8.568;2024-01-16T10:26:39;1.10;99.90
14079;DHT22;7115;50.150;8.568;2024-01-16T10:29:06;0.90;99.90
14079;DHT22;7115;50.150;8.568;2024-01-16T10:31:33;0.90;99.90
14079;DHT22;7115;50.150;8.568;2024-01-16T10:34:00;0.90;99.90
14079;DHT22;7115;50.150;8.568;2024-01-16T10:36:28;1.00;99.90
14079;DHT22;7115;50.150;8.568;2024-01-16T10:39:03;1.00;99.90
14079;DHT22;7115;50.150;8.568;2024-01-16T10:41:30;1.10;99.90
14079;DHT22;7115;50.150;8.568;2024-01-16T10:44:05;1.20;99.90
14079;DHT22;7115;50.150;8.568;2024-01-16T10:46:36;1.30;99.90
14079;DHT22;7115;50.150;8.568;2024-01-16T10:49:04;1.50;99.90
14079;DHT22;7115;50.150;8.568;2024-01-16T10:51:31;1.70;99.90
14079;DHT22;7115;50.150;8.568;2024-01-16T10:53:59;1.90;99.90
14079;DHT22;7115;50.150;8.568;2024-01-16T10:56:28;2.00;99.90
14079;DHT22;7115;50.150;8.568;2024-01-16T10:59:00;2.20;99.90
14079;DHT22;7115;50.150;8.568;2024-01-16T11:01:34;2.40;99.90
14079;DHT22;7115;50.150;8.568;2024-01-16T11:04:02;2.50;99.90
14079;DHT22;7115;50.150;8.568;2024-01-16T11:06:30;2.60;99.90
14079;DHT22;7115;50.150;8.568;2024-01-16T11:09:00;2.70;99.90
14079;DHT22;7115;50.150;8.568;2024-01-16T11:11:30;2.80;99.90
14079;DHT22;7115;50.150;8.568;2024-01-16T11:13:59;2.90;99.90
14079;DHT22;7115;50.150;8.568;2024-01-16T11:16:27;3.00;99.90
14079;DHT22;7115;50.150;8.568;2024-01-16T11:18:56;3.10;99.90
14079;DHT22;7115;50.150;8.568;2024-01-16T11:21:44;3.00;99.90
14079;DHT22;7115;50.150;8.568;2024-01-16T11:24:12;3.00;99.90
14079;DHT22;7115;50.150;8.568;2024-01-16T11:26:40;3.10;99.90
14079;DHT22;7115;50.150;8.568;2024-01-16T11:29:35;3.20;99.90
14079;DHT22;7115;50.150;8.568;2024-01-16T11:32:03;3.10;99.90
14079;DHT22;7115;50.150;8.568;2024-01-16T11:34:55;3.10;99.90
14079;DHT22;7115;50.150;8.568;2024-01-16T11:37:27;3.20;99.90
14079;DHT22;7115;50.150;8.568;2024-01-16T11:40:24;3.30;99.90
14079;DHT22;7115;50.150;8.568;2024-01-16T11:42:54;3.50;99.90
14079;DHT22;7115;50.150;8.568;2024-01-16T11:45:49;3.50;99.90
14079;DHT22;7115;50.150;8.568;2024-01-16T11:48:18;3.30;99.90
14079;DHT22;7115;50.150;8.568;2024-01-16T11:50:48;3.20;99.90
14079;DHT22;7115;50.150;8.568;2024-01-16T11:53:37;3.10;99.90
14079;DHT22;7115;50.150;8.568;2024-01-16T11:56:28;3.10;99.90
14079;DHT22;7115;50.150;8.568;2024-01-16T12:02:12;3.00;99.90
14079;DHT22;7115;50.150;8.568;2024-01-16T12:04:41;3.00;99.90
14079;DHT22;7115;50.150;8.568;2024-01-16T12:07:10;3.00;99.90
14079;DHT22;7115;50.150;8.568;2024-01-16T12:09:37;3.00;99.90
14079;DHT22;7115;50.150;8.568;2024-01-16T12:12:05;3.00;99.90
14079;DHT22;7115;50.150;8.568;2024-01-16T12:14:32;2.90;99.90
14079;DHT22;7115;50.150;8.568;2024-01-16T12:17:09;3.00;99.90
14079;DHT22;7115;50.150;8.568;2024-01-16T12:19:38;2.90;99.90
14079;DHT22;7115;50.150;8.568;2024-01-16T12:22:09;2.90;99.90
14079;DHT22;7115;50.150;8.568;2024-01-16T12:24:37;2.90;99.90
14079;DHT22;7115;50.150;8.568;2024-01-16T12:27:04;3.00;99.90
14079;DHT22;7115;50.150;8.568;2024-01-16T12:29:31;3.10;99.90
14079;DHT22;7115;50.150;8.568;2024-01-16T12:32:08;3.10;99.90
14079;DHT22;7115;50.150;8.568;2024-01-16T12:34:44;3.10;99.90
14079;DHT22;7115;50.150;8.568;2024-01-16T12:37:16;3.20;99.90
14079;DHT22;7115;50.150;8.568;2024-01-16T12:39:44;3.30;99.90
14079;DHT22;7115;50.150;8.568;2024-01-16T12:42:11;3.40;99.90
14079;DHT22;7115;50.150;8.568;2024-01-16T12:44:39;3.50;99.90
14079;DHT22;7115;50.150;8.568;2024-01-16T12:47:06;3.50;99.90
14079;DHT22;7115;50.150;8.568;2024-01-16T12:49:33;3.60;99.90
14079;DHT22;7115;50.150;8.568;2024-01-16T12:52:18;3.50;99.90
14079;DHT22;7115;50.150;8.568;2024-01-16T12:54:48;3.50;99.90
14079;DHT22;7115;50.150;8.568;2024-01-16T12:57:19;3.50;99.90
14079;DHT22;7115;50.150;8.568;2024-01-16T12:59:47;3.40;99.90
14079;DHT22;7115;50.150;8.568;2024-01-16T13:02:21;3.30;99.90
14079;DHT22;7115;50.150;8.568;2024-01-16T13:04:56;3.20;99.90
14079;DHT22;7115;50.150;8.568;2024-01-16T13:07:26;3.20;99.90
14079;DHT22;7115;50.150;8.568;2024-01-16T13:10:09;3.20;99.90
14079;DHT22;7115;50.150;8.568;2024-01-16T13:12:36;3.10;99.90
14079;DHT22;7115;50.150;8.568;2024-01-16T13:15:05;3.10;99.90
14079;DHT22;7115;50.150;8.568;2024-01-16T13:17:32;3.10;99.90
14079;DHT22;7115;50.150;8.568;2024-01-16T13:20:01;3.10;99.90
14079;DHT22;7115;50.150;8.568;2024-01-16T13:22:31;3.10;99.90
14079;DHT22;7115;50.150;8.568;2024-01-16T13:25:10;3.00;99.90
14079;DHT22;7115;50.150;8.568;2024-01-16T13:27:38;3.00;99.90
14079;DHT22;7115;50.150;8.568;2024-01-16T13:30:06;3.00;99.90
14079;DHT22;7115;50.150;8.568;2024-01-16T13:32:34;3.10;99.90
14079;DHT22;7115;50.150;8.568;2024-01-16T13:35:04;3.10;99.90
14079;DHT22;7115;50.150;8.568;2024-01-16T13:37:37;3.00;99.90
14079;DHT22;7115;50.150;8.568;2024-01-16T13:40:06;3.00;99.90
14079;DHT22;7115;50.150;8.568;2024-01-16T13:42:42;3.00;99.90
14079;DHT22;7115;50.150;8.568;2024-01-16T13:45:10;3.10;99.90
14079;DHT22;7115;50.150;8.568;2024-01-16T13:47:40;3.00;99.90
14079;DHT22;7115;50.150;8.568;2024-01-16T13:50:08;3.10;99.90
14079;DHT22;7115;50.150;8.568;2024-01-16T13:52:37;3.10;99.90
14079;DHT22;7115;50.150;8.568;2024-01-16T13:55:06;3.20;99.90
14079;DHT22;7115;50.150;8.568;2024-01-16T13:57:33;3.30;99.90
14079;DHT22;7115;50.150;8.568;2024-01-16T14:00:04;3.40;99.90
14079;DHT22;7115;50.150;8.568;2024-01-16T14:02:32;3.50;99.90
14079;DHT22;7115;50.150;8.568;2024-01-16T14:04:58;3.60;99.90
14079;DHT22;7115;50.150;8.568;2024-01-16T14:07:26;3.60;99.90
14079;DHT22;7115;50.150;8.568;2024-01-16T14:09:54;3.60;99.90
14079;DHT22;7115;50.150;8.568;2024-01-16T14:12:22;3.50;99.90
14079;DHT22;7115;50.150;8.568;2024-01-16T14:14:49;3.50;99.90
14079;DHT22;7115;50.150;8.568;2024-01-16T14:17:17;3.50;99.90
14079;DHT22;7115;50.150;8.568;2024-01-16T14:19:46;3.50;99.90
14079;DHT22;7115;50.150;8.568;2024-01-16T14:22:14;3.40;99.90
14079;DHT22;7115;50.150;8.568;2024-01-16T14:24:41;3.40;99.90
14079;DHT22;7115;50.150;8.568;2024-01-16T14:27:09;3.40;99.90
14079;DHT22;7115;50.150;8.568;2024-01-16T14:29:37;3.30;99.90
14079;DHT22;7115;50.150;8.568;2024-01-16T14:32:06;3.30;99.90
14079;DHT22;7115;50.150;8.568;2024-01-16T14:34:33;3.30;99.90
14079;DHT22;7115;50.150;8.568;2024-01-16T14:37:00;3.20;99.90
14079;DHT22;7115;50.150;8.568;2024-01-16T14:39:27;3.20;99.90
14079;DHT22;7115;50.150;8.568;2024-01-16T14:41:57;3.20;99.90
14079;DHT22;7115;50.150;8.568;2024-01-16T14:44:30;3.20;99.90
14079;DHT22;7115;50.150;8.568;2024-01-16T14:47:00;3.20;99.90
14079;DHT22;7115;50.150;8.568;2024-01-16T14:49:27;3.30;99.90
14079;DHT22;7115;50.150;8.568;2024-01-16T14:51:58;3.30;99.90
14079;DHT22;7115;50.150;8.568;2024-01-16T14:54:26;3.30;99.90
14079;DHT22;7115;50.150;8.568;2024-01-16T14:56:53;3.30;99.90
14079;DHT22;7115;50.150;8.568;2024-01-16T14:59:20;3.30;99.90
14079;DHT22;7115;50.150;8.568;2024-01-16T15:01:48;3.30;99.90
14079;DHT22;7115;50.150;8.568;2024-01-16T15:04:15;3.40;99.90
14079;DHT22;7115;50.150;8.568;2024-01-16T15:06:43;3.40;99.90
14079;DHT22;7115;50.150;8.568;2024-01-16T15:09:10;3.40;99.90
14079;DHT22;7115;50.150;8.568;2024-01-16T15:11:39;3.40;99.90
14079;DHT22;7115;50.150;8.568;2024-01-16T15:14:06;3.30;99.90
14079;DHT22;7115;50.150;8.568;2024-01-16T15:16:33;3.30;99.90
14079;DHT22;7115;50.150;8.568;2024-01-16T15:19:01;3.20;99.90
14079;DHT22;7115;50.150;8.568;2024-01-16T15:21:30;3.30;99.90
14079;DHT22;7115;50.150;8.568;2024-01-16T15:23:57;3.10;99.90
14079;DHT22;7115;50.150;8.568;2024-01-16T15:26:24;3.00;99.90
14079;DHT22;7115;50.150;8.568;2024-01-16T15:28:52;2.90;99.90
14079;DHT22;7115;50.150;8.568;2024-01-16T15:31:19;2.80;99.90
14079;DHT22;7115;50.150;8.568;2024-01-16T15:33:48;2.70;99.90
14079;DHT22;7115;50.150;8.568;2024-01-16T15:36:17;2.60;99.90
14079;DHT22;7115;50.150;8.568;2024-01-16T15:38:44;2.50;99.90
14079;DHT22;7115;50.150;8.568;2024-01-16T15:41:12;2.40;99.90
14079;DHT22;7115;50.150;8.568;2024-01-16T15:43:40;2.40;99.90
14079;DHT22;7115;50.150;8.568;2024-01-16T15:46:07;2.40;99.90
14079;DHT22;7115;50.150;8.568;2024-01-16T15:48:34;2.40;99.90
14079;DHT22;7115;50.150;8.568;2024-01-16T15:51:02;2.40;99.90
14079;DHT22;7115;50.150;8.568;2024-01-16T15:53:37;2.30;99.90
14079;DHT22;7115;50.150;8.568;2024-01-16T15:56:04;2.40;99.90
14079;DHT22;7115;50.150;8.568;2024-01-16T15:58:34;2.30;99.90
14079;DHT22;7115;50.150;8.568;2024-01-16T16:01:01;2.30;99.90
14079;DHT22;7115;50.150;8.568;2024-01-16T16:03:29;2.30;99.90
14079;DHT22;7115;50.150;8.568;2024-01-16T16:05:56;2.30;99.90
14079;DHT22;7115;50.150;8.568;2024-01-16T16:08:23;2.20;99.90
14079;DHT22;7115;50.150;8.568;2024-01-16T16:10:53;2.20;99.90
14079;DHT22;7115;50.150;8.568;2024-01-16T16:13:20;2.20;99.90